sensor_id;sensor_type;location;lat;lon;timestamp;P1;durP1;ratioP1;P2;durP2;ratioP2
1382;SDS011;685;47.196;11.880;2023-01-24T00:00:00;13.63;;;10.70;;
1382;SDS011;685;47.196;11.880;2023-01-24T00:02:27;14.30;;;11.47;;
1382;SDS011;685;47.196;11.880;2023-01-24T00:04:54;17.00;;;11.33;;
1382;SDS011;685;47.196;11.880;2023-01-24T00:07:21;14.93;;;11.67;;
1382;SDS011;685;47.196;11.880;2023-01-24T00:09:49;12.87;;;11.13;;
1382;SDS011;685;47.196;11.880;2023-01-24T00:12:16;14.03;;;10.70;;
1382;SDS011;685;47.196;11.880;2023-01-24T00:14:43;14.77;;;11.03;;
1382;SDS011;685;47.196;11.880;2023-01-24T00:17:09;11.73;;;10.50;;
1382;SDS011;685;47.196;11.880;2023-01-24T00:19:36;14.23;;;11.63;;
1382;SDS011;685;47.196;11.880;2023-01-24T00:22:03;11.13;;;9.10;;
1382;SDS011;685;47.196;11.880;2023-01-24T00:24:32;10.50;;;9.07;;
1382;SDS011;685;47.196;11.880;2023-01-24T00:27:01;13.07;;;10.17;;
1382;SDS011;685;47.196;11.880;2023-01-24T00:29:28;12.00;;;9.47;;
1382;SDS011;685;47.196;11.880;2023-01-24T00:31:55;13.17;;;8.80;;
1382;SDS011;685;47.196;11.880;2023-01-24T00:34:22;12.90;;;10.37;;
1382;SDS011;685;47.196;11.880;2023-01-24T00:36:49;14.80;;;11.47;;
1382;SDS011;685;47.196;11.880;2023-01-24T00:39:16;18.30;;;12.30;;
1382;SDS011;685;47.196;11.880;2023-01-24T00:41:43;15.43;;;11.23;;
1382;SDS011;685;47.196;11.880;2023-01-24T00:44:11;18.07;;;11.60;;
1382;SDS011;685;47.196;11.880;2023-01-24T00:46:38;15.70;;;12.47;;
1382;SDS011;685;47.196;11.880;2023-01-24T00:49:06;13.10;;;11.80;;
1382;SDS011;685;47.196;11.880;2023-01-24T00:51:32;12.47;;;11.07;;
1382;SDS011;685;47.196;11.880;2023-01-24T00:53:59;14.50;;;13.00;;
1382;SDS011;685;47.196;11.880;2023-01-24T00:56:26;18.27;;;11.30;;
1382;SDS011;685;47.196;11.880;2023-01-24T00:58:53;15.77;;;12.57;;
1382;SDS011;685;47.196;11.880;2023-01-24T01:01:22;15.50;;;12.20;;
1382;SDS011;685;47.196;11.880;2023-01-24T01:03:48;16.80;;;11.97;;
1382;SDS011;685;47.196;11.880;2023-01-24T01:06:15;18.23;;;13.20;;
1382;SDS011;685;47.196;11.880;2023-01-24T01:08:42;18.97;;;12.47;;
1382;SDS011;685;47.196;11.880;2023-01-24T01:11:09;15.53;;;11.23;;
1382;SDS011;685;47.196;11.880;2023-01-24T01:13:36;17.77;;;12.27;;
1382;SDS011;685;47.196;11.880;2023-01-24T01:16:04;14.60;;;11.07;;
1382;SDS011;685;47.196;11.880;2023-01-24T01:18:34;14.37;;;10.43;;
1382;SDS011;685;47.196;11.880;2023-01-24T01:21:01;17.67;;;11.97;;
1382;SDS011;685;47.196;11.880;2023-01-24T01:23:28;18.20;;;12.37;;
1382;SDS011;685;47.196;11.880;2023-01-24T01:25:59;19.23;;;12.90;;
1382;SDS011;685;47.196;11.880;2023-01-24T01:28:26;18.70;;;11.67;;
1382;SDS011;685;47.196;11.880;2023-01-24T01:30:53;14.20;;;11.90;;
1382;SDS011;685;47.196;11.880;2023-01-24T01:33:20;13.97;;;10.20;;
1382;SDS011;685;47.196;11.880;2023-01-24T01:35:49;15.90;;;11.23;;
1382;SDS011;685;47.196;11.880;2023-01-24T01:38:17;18.30;;;12.03;;
1382;SDS011;685;47.196;11.880;2023-01-24T01:40:44;15.80;;;11.73;;
1382;SDS011;685;47.196;11.880;2023-01-24T01:43:12;19.30;;;11.70;;
1382;SDS011;685;47.196;11.880;2023-01-24T01:45:40;16.70;;;12.00;;
1382;SDS011;685;47.196;11.880;2023-01-24T01:48:12;15.50;;;11.87;;
1382;SDS011;685;47.196;11.880;2023-01-24T01:50:45;16.97;;;12.13;;
1382;SDS011;685;47.196;11.880;2023-01-24T01:53:18;19.00;;;11.90;;
1382;SDS011;685;47.196;11.880;2023-01-24T01:55:48;18.07;;;13.33;;
1382;SDS011;685;47.196;11.880;2023-01-24T01:58:21;14.60;;;11.40;;
1382;SDS011;685;47.196;11.880;2023-01-24T02:00:48;14.33;;;11.30;;
1382;SDS011;685;47.196;11.880;2023-01-24T02:03:16;20.17;;;12.60;;
1382;SDS011;685;47.196;11.880;2023-01-24T02:06:10;17.80;;;13.00;;
1382;SDS011;685;47.196;11.880;2023-01-24T02:08:43;15.20;;;11.20;;
1382;SDS011;685;47.196;11.880;2023-01-24T02:11:11;15.63;;;12.00;;
1382;SDS011;685;47.196;11.880;2023-01-24T02:13:57;19.40;;;13.60;;
1382;SDS011;685;47.196;11.880;2023-01-24T02:16:39;17.13;;;13.30;;
1382;SDS011;685;47.196;11.880;2023-01-24T02:19:06;18.63;;;11.23;;
1382;SDS011;685;47.196;11.880;2023-01-24T02:21:44;17.73;;;12.13;;
1382;SDS011;685;47.196;11.880;2023-01-24T02:24:14;23.20;;;11.70;;
1382;SDS011;685;47.196;11.880;2023-01-24T02:26:48;14.53;;;11.27;;
1382;SDS011;685;47.196;11.880;2023-01-24T02:29:15;16.60;;;11.73;;
1382;SDS011;685;47.196;11.880;2023-01-24T02:31:52;14.07;;;11.13;;
1382;SDS011;685;47.196;11.880;2023-01-24T02:34:20;17.60;;;12.27;;
1382;SDS011;685;47.196;11.880;2023-01-24T02:36:48;17.50;;;12.23;;
1382;SDS011;685;47.196;11.880;2023-01-24T02:39:18;18.57;;;11.90;;
1382;SDS011;685;47.196;11.880;2023-01-24T02:41:51;12.03;;;10.70;;
1382;SDS011;685;47.196;11.880;2023-01-24T02:44:21;16.20;;;10.60;;
1382;SDS011;685;47.196;11.880;2023-01-24T02:46:54;14.67;;;11.27;;
1382;SDS011;685;47.196;11.880;2023-01-24T02:49:21;17.73;;;12.37;;
1382;SDS011;685;47.196;11.880;2023-01-24T02:51:48;20.97;;;13.40;;
1382;SDS011;685;47.196;11.880;2023-01-24T02:54:32;15.80;;;11.03;;
1382;SDS011;685;47.196;11.880;2023-01-24T02:57:00;15.50;;;12.17;;
1382;SDS011;685;47.196;11.880;2023-01-24T02:59:44;14.07;;;11.53;;
1382;SDS011;685;47.196;11.880;2023-01-24T03:02:11;16.53;;;11.63;;
1382;SDS011;685;47.196;11.880;2023-01-24T03:04:38;12.80;;;10.80;;
1382;SDS011;685;47.196;11.880;2023-01-24T03:07:05;15.40;;;11.33;;
1382;SDS011;685;47.196;11.880;2023-01-24T03:09:32;15.17;;;12.00;;
1382;SDS011;685;47.196;11.880;2023-01-24T03:12:05;19.77;;;12.43;;
1382;SDS011;685;47.196;11.880;2023-01-24T03:14:50;14.17;;;11.57;;
1382;SDS011;685;47.196;11.880;2023-01-24T03:17:35;16.33;;;12.80;;
1382;SDS011;685;47.196;11.880;2023-01-24T03:20:19;12.83;;;11.00;;
1382;SDS011;685;47.196;11.880;2023-01-24T03:23:04;15.97;;;10.90;;
1382;SDS011;685;47.196;11.880;2023-01-24T03:25:52;12.60;;;9.90;;
1382;SDS011;685;47.196;11.880;2023-01-24T03:28:38;10.50;;;9.27;;
1382;SDS011;685;47.196;11.880;2023-01-24T03:31:23;15.13;;;10.47;;
1382;SDS011;685;47.196;11.880;2023-01-24T03:34:07;12.80;;;9.50;;
1382;SDS011;685;47.196;11.880;2023-01-24T03:36:52;11.93;;;9.23;;
1382;SDS011;685;47.196;11.880;2023-01-24T03:39:19;11.87;;;9.77;;
1382;SDS011;685;47.196;11.880;2023-01-24T03:42:03;15.00;;;10.10;;
1382;SDS011;685;47.196;11.880;2023-01-24T03:44:31;13.83;;;9.70;;
1382;SDS011;685;47.196;11.880;2023-01-24T03:46:58;11.53;;;10.00;;
1382;SDS011;685;47.196;11.880;2023-01-24T03:49:25;14.10;;;10.27;;
1382;SDS011;685;47.196;11.880;2023-01-24T03:52:10;17.27;;;11.10;;
1382;SDS011;685;47.196;11.880;2023-01-24T03:54:54;14.87;;;10.63;;
1382;SDS011;685;47.196;11.880;2023-01-24T03:57:22;10.00;;;8.70;;
1382;SDS011;685;47.196;11.880;2023-01-24T03:59:50;11.93;;;7.97;;
1382;SDS011;685;47.196;11.880;2023-01-24T04:02:18;12.47;;;8.43;;
1382;SDS011;685;47.196;11.880;2023-01-24T04:04:45;8.70;;;7.20;;
1382;SDS011;685;47.196;11.880;2023-01-24T04:07:29;11.03;;;7.83;;
1382;SDS011;685;47.196;11.880;2023-01-24T04:09:56;13.07;;;8.80;;
1382;SDS011;685;47.196;11.880;2023-01-24T04:12:24;12.83;;;8.23;;
1382;SDS011;685;47.196;11.880;2023-01-24T04:14:52;12.73;;;9.40;;
1382;SDS011;685;47.196;11.880;2023-01-24T04:17:19;15.40;;;9.63;;
1382;SDS011;685;47.196;11.880;2023-01-24T04:19:46;13.53;;;9.77;;
1382;SDS011;685;47.196;11.880;2023-01-24T04:22:14;13.30;;;9.50;;
1382;SDS011;685;47.196;11.880;2023-01-24T04:24:42;15.83;;;10.03;;
1382;SDS011;685;47.196;11.880;2023-01-24T04:27:09;14.77;;;10.57;;
1382;SDS011;685;47.196;11.880;2023-01-24T04:29:36;11.73;;;8.67;;
1382;SDS011;685;47.196;11.880;2023-01-24T04:32:05;13.90;;;9.27;;
1382;SDS011;685;47.196;11.880;2023-01-24T04:34:32;15.03;;;10.50;;
1382;SDS011;685;47.196;11.880;2023-01-24T04:36:58;11.40;;;9.00;;
1382;SDS011;685;47.196;11.880;2023-01-24T04:39:25;12.40;;;8.33;;
1382;SDS011;685;47.196;11.880;2023-01-24T04:41:52;13.23;;;10.00;;
1382;SDS011;685;47.196;11.880;2023-01-24T04:44:19;13.43;;;9.57;;
1382;SDS011;685;47.196;11.880;2023-01-24T04:46:46;10.73;;;8.80;;
1382;SDS011;685;47.196;11.880;2023-01-24T04:49:14;13.20;;;9.03;;
1382;SDS011;685;47.196;11.880;2023-01-24T04:51:42;12.10;;;9.67;;
1382;SDS011;685;47.196;11.880;2023-01-24T04:54:09;13.50;;;8.77;;
1382;SDS011;685;47.196;11.880;2023-01-24T04:56:36;13.73;;;8.53;;
1382;SDS011;685;47.196;11.880;2023-01-24T04:59:03;15.93;;;10.87;;
1382;SDS011;685;47.196;11.880;2023-01-24T05:01:30;11.17;;;7.33;;
1382;SDS011;685;47.196;11.880;2023-01-24T05:03:57;13.43;;;9.73;;
1382;SDS011;685;47.196;11.880;2023-01-24T05:06:26;8.90;;;8.00;;
1382;SDS011;685;47.196;11.880;2023-01-24T05:08:55;13.23;;;8.80;;
1382;SDS011;685;47.196;11.880;2023-01-24T05:11:22;17.87;;;10.23;;
1382;SDS011;685;47.196;11.880;2023-01-24T05:13:49;14.70;;;10.97;;
1382;SDS011;685;47.196;11.880;2023-01-24T05:16:17;17.77;;;12.33;;
1382;SDS011;685;47.196;11.880;2023-01-24T05:18:44;23.43;;;14.80;;
1382;SDS011;685;47.196;11.880;2023-01-24T05:21:11;23.58;;;12.75;;
1382;SDS011;685;47.196;11.880;2023-01-24T05:23:41;14.40;;;10.90;;
1382;SDS011;685;47.196;11.880;2023-01-24T05:26:08;15.30;;;9.73;;
1382;SDS011;685;47.196;11.880;2023-01-24T05:28:35;17.13;;;12.60;;
1382;SDS011;685;47.196;11.880;2023-01-24T05:31:02;15.43;;;11.47;;
1382;SDS011;685;47.196;11.880;2023-01-24T05:33:32;14.83;;;10.60;;
1382;SDS011;685;47.196;11.880;2023-01-24T05:35:59;16.97;;;11.57;;
1382;SDS011;685;47.196;11.880;2023-01-24T05:38:26;17.70;;;11.07;;
1382;SDS011;685;47.196;11.880;2023-01-24T05:40:58;16.63;;;11.63;;
1382;SDS011;685;47.196;11.880;2023-01-24T05:43:26;14.93;;;10.60;;
1382;SDS011;685;47.196;11.880;2023-01-24T05:45:56;15.30;;;9.03;;
1382;SDS011;685;47.196;11.880;2023-01-24T05:48:24;11.90;;;9.73;;
1382;SDS011;685;47.196;11.880;2023-01-24T05:50:55;13.57;;;9.80;;
1382;SDS011;685;47.196;11.880;2023-01-24T05:53:23;19.07;;;12.13;;
1382;SDS011;685;47.196;11.880;2023-01-24T05:55:55;25.17;;;12.47;;
1382;SDS011;685;47.196;11.880;2023-01-24T05:58:22;21.23;;;12.57;;
1382;SDS011;685;47.196;11.880;2023-01-24T06:00:50;23.83;;;13.30;;
1382;SDS011;685;47.196;11.880;2023-01-24T06:03:17;22.30;;;12.90;;
1382;SDS011;685;47.196;11.880;2023-01-24T06:05:45;17.13;;;10.27;;
1382;SDS011;685;47.196;11.880;2023-01-24T06:08:13;14.33;;;8.73;;
1382;SDS011;685;47.196;11.880;2023-01-24T06:10:40;10.57;;;8.40;;
1382;SDS011;685;47.196;11.880;2023-01-24T06:13:08;11.50;;;9.03;;
1382;SDS011;685;47.196;11.880;2023-01-24T06:15:36;11.93;;;8.10;;
1382;SDS011;685;47.196;11.880;2023-01-24T06:18:04;13.03;;;7.70;;
1382;SDS011;685;47.196;11.880;2023-01-24T06:20:32;12.70;;;9.03;;
1382;SDS011;685;47.196;11.880;2023-01-24T06:23:02;10.60;;;8.80;;
1382;SDS011;685;47.196;11.880;2023-01-24T06:25:30;10.20;;;9.07;;
1382;SDS011;685;47.196;11.880;2023-01-24T06:27:58;10.53;;;8.77;;
1382;SDS011;685;47.196;11.880;2023-01-24T06:30:27;15.53;;;10.23;;
1382;SDS011;685;47.196;11.880;2023-01-24T06:32:59;14.60;;;10.00;;
1382;SDS011;685;47.196;11.880;2023-01-24T06:35:35;11.63;;;8.63;;
1382;SDS011;685;47.196;11.880;2023-01-24T06:38:12;11.87;;;8.70;;
1382;SDS011;685;47.196;11.880;2023-01-24T06:40:45;11.17;;;7.60;;
1382;SDS011;685;47.196;11.880;2023-01-24T06:43:13;12.50;;;8.63;;
1382;SDS011;685;47.196;11.880;2023-01-24T06:45:41;14.02;;;8.75;;
1382;SDS011;685;47.196;11.880;2023-01-24T06:48:08;9.33;;;7.87;;
1382;SDS011;685;47.196;11.880;2023-01-24T06:50:35;16.70;;;8.23;;
1382;SDS011;685;47.196;11.880;2023-01-24T06:53:02;11.37;;;7.73;;
1382;SDS011;685;47.196;11.880;2023-01-24T06:55:29;9.97;;;7.70;;
1382;SDS011;685;47.196;11.880;2023-01-24T06:57:56;9.37;;;7.17;;
1382;SDS011;685;47.196;11.880;2023-01-24T07:00:24;11.63;;;6.63;;
1382;SDS011;685;47.196;11.880;2023-01-24T07:02:59;15.80;;;7.80;;
1382;SDS011;685;47.196;11.880;2023-01-24T07:05:27;8.10;;;6.40;;
1382;SDS011;685;47.196;11.880;2023-01-24T07:07:54;8.17;;;6.27;;
1382;SDS011;685;47.196;11.880;2023-01-24T07:10:21;8.83;;;7.80;;
1382;SDS011;685;47.196;11.880;2023-01-24T07:12:48;10.80;;;7.70;;
1382;SDS011;685;47.196;11.880;2023-01-24T07:15:15;10.17;;;7.57;;
1382;SDS011;685;47.196;11.880;2023-01-24T07:17:43;9.63;;;8.03;;
1382;SDS011;685;47.196;11.880;2023-01-24T07:20:12;12.77;;;9.00;;
1382;SDS011;685;47.196;11.880;2023-01-24T07:22:40;10.97;;;9.63;;
1382;SDS011;685;47.196;11.880;2023-01-24T07:25:10;13.50;;;10.80;;
1382;SDS011;685;47.196;11.880;2023-01-24T07:27:40;18.90;;;12.03;;
1382;SDS011;685;47.196;11.880;2023-01-24T07:30:08;17.57;;;11.50;;
1382;SDS011;685;47.196;11.880;2023-01-24T07:32:35;16.60;;;12.20;;
1382;SDS011;685;47.196;11.880;2023-01-24T07:35:02;14.17;;;10.67;;
1382;SDS011;685;47.196;11.880;2023-01-24T07:37:31;14.82;;;10.82;;
1382;SDS011;685;47.196;11.880;2023-01-24T07:39:58;16.50;;;10.90;;
1382;SDS011;685;47.196;11.880;2023-01-24T07:42:25;17.23;;;10.80;;
1382;SDS011;685;47.196;11.880;2023-01-24T07:44:52;16.20;;;10.40;;
1382;SDS011;685;47.196;11.880;2023-01-24T07:47:21;14.33;;;9.17;;
1382;SDS011;685;47.196;11.880;2023-01-24T07:49:49;13.03;;;10.17;;
1382;SDS011;685;47.196;11.880;2023-01-24T07:52:16;11.87;;;9.80;;
1382;SDS011;685;47.196;11.880;2023-01-24T07:54:44;17.33;;;10.33;;
1382;SDS011;685;47.196;11.880;2023-01-24T07:57:11;12.40;;;9.73;;
1382;SDS011;685;47.196;11.880;2023-01-24T07:59:38;11.47;;;9.10;;
1382;SDS011;685;47.196;11.880;2023-01-24T08:02:05;16.73;;;9.10;;
1382;SDS011;685;47.196;11.880;2023-01-24T08:04:32;12.33;;;8.07;;
1382;SDS011;685;47.196;11.880;2023-01-24T08:06:59;12.10;;;10.07;;
1382;SDS011;685;47.196;11.880;2023-01-24T08:09:46;11.47;;;8.60;;
1382;SDS011;685;47.196;11.880;2023-01-24T08:12:14;11.25;;;8.45;;
1382;SDS011;685;47.196;11.880;2023-01-24T08:14:41;14.73;;;8.47;;
1382;SDS011;685;47.196;11.880;2023-01-24T08:17:08;12.77;;;9.50;;
1382;SDS011;685;47.196;11.880;2023-01-24T08:19:36;11.30;;;9.07;;
1382;SDS011;685;47.196;11.880;2023-01-24T08:22:03;13.30;;;9.40;;
1382;SDS011;685;47.196;11.880;2023-01-24T08:24:30;11.10;;;9.87;;
1382;SDS011;685;47.196;11.880;2023-01-24T08:26:59;20.37;;;14.87;;
1382;SDS011;685;47.196;11.880;2023-01-24T08:29:26;21.00;;;13.83;;
1382;SDS011;685;47.196;11.880;2023-01-24T08:31:54;18.50;;;12.27;;
1382;SDS011;685;47.196;11.880;2023-01-24T08:34:21;17.70;;;13.00;;
1382;SDS011;685;47.196;11.880;2023-01-24T08:36:48;18.10;;;13.90;;
1382;SDS011;685;47.196;11.880;2023-01-24T08:39:14;22.83;;;15.30;;
1382;SDS011;685;47.196;11.880;2023-01-24T08:41:42;21.07;;;17.47;;
1382;SDS011;685;47.196;11.880;2023-01-24T08:44:12;20.70;;;16.37;;
1382;SDS011;685;47.196;11.880;2023-01-24T08:46:40;19.70;;;15.97;;
1382;SDS011;685;47.196;11.880;2023-01-24T08:49:09;16.93;;;14.63;;
1382;SDS011;685;47.196;11.880;2023-01-24T08:51:36;16.07;;;13.93;;
1382;SDS011;685;47.196;11.880;2023-01-24T08:54:03;15.80;;;11.40;;
1382;SDS011;685;47.196;11.880;2023-01-24T08:56:31;17.73;;;14.07;;
1382;SDS011;685;47.196;11.880;2023-01-24T08:58:58;16.87;;;11.83;;
1382;SDS011;685;47.196;11.880;2023-01-24T09:01:26;14.50;;;10.83;;
1382;SDS011;685;47.196;11.880;2023-01-24T09:03:53;14.50;;;10.20;;
1382;SDS011;685;47.196;11.880;2023-01-24T09:06:21;14.13;;;10.03;;
1382;SDS011;685;47.196;11.880;2023-01-24T09:08:50;12.73;;;10.00;;
1382;SDS011;685;47.196;11.880;2023-01-24T09:11:19;11.90;;;8.17;;
1382;SDS011;685;47.196;11.880;2023-01-24T09:13:46;11.60;;;8.95;;
1382;SDS011;685;47.196;11.880;2023-01-24T09:16:13;11.00;;;8.07;;
1382;SDS011;685;47.196;11.880;2023-01-24T09:18:41;15.27;;;9.30;;
1382;SDS011;685;47.196;11.880;2023-01-24T09:21:08;12.53;;;9.47;;
1382;SDS011;685;47.196;11.880;2023-01-24T09:23:35;11.37;;;9.47;;
1382;SDS011;685;47.196;11.880;2023-01-24T09:26:02;17.77;;;10.87;;
1382;SDS011;685;47.196;11.880;2023-01-24T09:28:29;10.10;;;8.20;;
1382;SDS011;685;47.196;11.880;2023-01-24T09:30:56;13.40;;;10.00;;
1382;SDS011;685;47.196;11.880;2023-01-24T09:33:23;13.17;;;9.47;;
1382;SDS011;685;47.196;11.880;2023-01-24T09:35:52;13.33;;;8.60;;
1382;SDS011;685;47.196;11.880;2023-01-24T09:38:20;14.07;;;8.80;;
1382;SDS011;685;47.196;11.880;2023-01-24T09:40:50;12.10;;;7.90;;
1382;SDS011;685;47.196;11.880;2023-01-24T09:43:29;17.00;;;10.80;;
1382;SDS011;685;47.196;11.880;2023-01-24T09:46:05;14.80;;;11.03;;
1382;SDS011;685;47.196;11.880;2023-01-24T09:48:42;17.40;;;13.73;;
1382;SDS011;685;47.196;11.880;2023-01-24T09:51:12;21.77;;;16.37;;
1382;SDS011;685;47.196;11.880;2023-01-24T09:53:43;17.47;;;14.90;;
1382;SDS011;685;47.196;11.880;2023-01-24T09:56:16;18.47;;;12.57;;
1382;SDS011;685;47.196;11.880;2023-01-24T09:58:53;15.57;;;11.17;;
1382;SDS011;685;47.196;11.880;2023-01-24T10:01:39;20.97;;;13.60;;
1382;SDS011;685;47.196;11.880;2023-01-24T10:04:16;17.47;;;12.70;;
1382;SDS011;685;47.196;11.880;2023-01-24T10:06:51;17.20;;;12.70;;
1382;SDS011;685;47.196;11.880;2023-01-24T10:09:31;20.27;;;13.10;;
1382;SDS011;685;47.196;11.880;2023-01-24T10:12:07;20.77;;;13.87;;
1382;SDS011;685;47.196;11.880;2023-01-24T10:14:47;15.83;;;11.60;;
1382;SDS011;685;47.196;11.880;2023-01-24T10:17:25;16.90;;;11.53;;
1382;SDS011;685;47.196;11.880;2023-01-24T10:20:27;19.07;;;13.30;;
1382;SDS011;685;47.196;11.880;2023-01-24T10:23:04;14.73;;;11.00;;
1382;SDS011;685;47.196;11.880;2023-01-24T10:25:37;16.87;;;10.60;;
1382;SDS011;685;47.196;11.880;2023-01-24T10:28:17;20.93;;;12.47;;
1382;SDS011;685;47.196;11.880;2023-01-24T10:30:49;18.73;;;10.73;;
1382;SDS011;685;47.196;11.880;2023-01-24T10:33:22;17.20;;;11.30;;
1382;SDS011;685;47.196;11.880;2023-01-24T10:35:55;15.03;;;11.30;;
1382;SDS011;685;47.196;11.880;2023-01-24T10:38:26;19.23;;;13.40;;
1382;SDS011;685;47.196;11.880;2023-01-24T10:40:54;14.93;;;11.70;;
1382;SDS011;685;47.196;11.880;2023-01-24T10:43:22;18.13;;;13.30;;
1382;SDS011;685;47.196;11.880;2023-01-24T10:45:55;19.37;;;13.23;;
1382;SDS011;685;47.196;11.880;2023-01-24T10:48:34;23.20;;;12.50;;
1382;SDS011;685;47.196;11.880;2023-01-24T10:51:13;14.43;;;10.13;;
1382;SDS011;685;47.196;11.880;2023-01-24T10:53:43;18.63;;;10.63;;
1382;SDS011;685;47.196;11.880;2023-01-24T10:56:10;13.10;;;10.30;;
1382;SDS011;685;47.196;11.880;2023-01-24T10:58:40;14.53;;;10.20;;
1382;SDS011;685;47.196;11.880;2023-01-24T11:01:14;17.20;;;10.23;;
1382;SDS011;685;47.196;11.880;2023-01-24T11:03:44;16.37;;;11.60;;
1382;SDS011;685;47.196;11.880;2023-01-24T11:09:03;15.47;;;10.90;;
1382;SDS011;685;47.196;11.880;2023-01-24T11:11:36;16.73;;;13.83;;
1382;SDS011;685;47.196;11.880;2023-01-24T11:14:08;19.70;;;13.77;;
1382;SDS011;685;47.196;11.880;2023-01-24T11:16:41;19.37;;;12.60;;
1382;SDS011;685;47.196;11.880;2023-01-24T11:19:20;14.60;;;11.30;;
1382;SDS011;685;47.196;11.880;2023-01-24T11:21:51;18.70;;;13.23;;
1382;SDS011;685;47.196;11.880;2023-01-24T11:24:20;16.03;;;12.77;;
1382;SDS011;685;47.196;11.880;2023-01-24T11:26:53;19.57;;;13.87;;
1382;SDS011;685;47.196;11.880;2023-01-24T11:29:23;17.10;;;13.67;;
1382;SDS011;685;47.196;11.880;2023-01-24T11:31:51;16.70;;;13.27;;
1382;SDS011;685;47.196;11.880;2023-01-24T11:34:35;20.47;;;13.50;;
1382;SDS011;685;47.196;11.880;2023-01-24T11:37:18;16.70;;;11.70;;
1382;SDS011;685;47.196;11.880;2023-01-24T11:40:07;14.50;;;10.53;;
1382;SDS011;685;47.196;11.880;2023-01-24T11:42:45;11.70;;;10.47;;
1382;SDS011;685;47.196;11.880;2023-01-24T11:45:27;11.40;;;9.80;;
1382;SDS011;685;47.196;11.880;2023-01-24T11:48:06;15.23;;;9.70;;
1382;SDS011;685;47.196;11.880;2023-01-24T11:50:41;11.57;;;10.00;;
1382;SDS011;685;47.196;11.880;2023-01-24T11:56:10;12.13;;;9.87;;
1382;SDS011;685;47.196;11.880;2023-01-24T11:58:58;13.20;;;10.17;;
1382;SDS011;685;47.196;11.880;2023-01-24T12:02:00;11.27;;;9.40;;
1382;SDS011;685;47.196;11.880;2023-01-24T12:04:43;10.73;;;8.47;;
1382;SDS011;685;47.196;11.880;2023-01-24T12:07:25;12.60;;;8.80;;
1382;SDS011;685;47.196;11.880;2023-01-24T12:10:00;11.10;;;10.00;;
1382;SDS011;685;47.196;11.880;2023-01-24T12:12:35;14.40;;;10.63;;
1382;SDS011;685;47.196;11.880;2023-01-24T12:15:11;14.83;;;10.53;;
1382;SDS011;685;47.196;11.880;2023-01-24T12:18:05;12.90;;;10.07;;
1382;SDS011;685;47.196;11.880;2023-01-24T12:20:58;14.70;;;9.70;;
1382;SDS011;685;47.196;11.880;2023-01-24T12:23:32;13.43;;;9.63;;
1382;SDS011;685;47.196;11.880;2023-01-24T12:26:07;13.47;;;10.10;;
1382;SDS011;685;47.196;11.880;2023-01-24T12:28:41;13.83;;;11.03;;
1382;SDS011;685;47.196;11.880;2023-01-24T12:31:15;13.17;;;9.30;;
1382;SDS011;685;47.196;11.880;2023-01-24T12:33:49;13.13;;;10.10;;
1382;SDS011;685;47.196;11.880;2023-01-24T12:36:24;10.80;;;9.00;;
1382;SDS011;685;47.196;11.880;2023-01-24T12:38:59;10.40;;;8.10;;
1382;SDS011;685;47.196;11.880;2023-01-24T12:41:31;14.23;;;9.40;;
1382;SDS011;685;47.196;11.880;2023-01-24T12:44:03;11.60;;;7.30;;
1382;SDS011;685;47.196;11.880;2023-01-24T12:46:38;10.47;;;8.37;;
1382;SDS011;685;47.196;11.880;2023-01-24T12:49:11;12.37;;;8.00;;
1382;SDS011;685;47.196;11.880;2023-01-24T12:51:51;9.13;;;6.90;;
1382;SDS011;685;47.196;11.880;2023-01-24T12:54:27;12.60;;;8.70;;
1382;SDS011;685;47.196;11.880;2023-01-24T12:57:02;11.17;;;8.13;;
1382;SDS011;685;47.196;11.880;2023-01-24T12:59:39;11.47;;;8.20;;
1382;SDS011;685;47.196;11.880;2023-01-24T13:02:16;10.97;;;8.47;;
1382;SDS011;685;47.196;11.880;2023-01-24T13:05:05;9.93;;;7.97;;
1382;SDS011;685;47.196;11.880;2023-01-24T13:07:52;11.03;;;8.00;;
1382;SDS011;685;47.196;11.880;2023-01-24T13:10:40;11.63;;;8.10;;
1382;SDS011;685;47.196;11.880;2023-01-24T13:13:19;10.60;;;8.30;;
1382;SDS011;685;47.196;11.880;2023-01-24T13:15:56;9.60;;;8.03;;
1382;SDS011;685;47.196;11.880;2023-01-24T13:18:36;13.63;;;9.33;;
1382;SDS011;685;47.196;11.880;2023-01-24T13:21:14;10.10;;;8.60;;
1382;SDS011;685;47.196;11.880;2023-01-24T13:23:51;12.30;;;8.90;;
1382;SDS011;685;47.196;11.880;2023-01-24T13:26:37;17.80;;;11.03;;
1382;SDS011;685;47.196;11.880;2023-01-24T13:29:25;13.67;;;10.20;;
1382;SDS011;685;47.196;11.880;2023-01-24T13:32:05;14.00;;;8.93;;
1382;SDS011;685;47.196;11.880;2023-01-24T13:34:35;12.40;;;9.87;;
1382;SDS011;685;47.196;11.880;2023-01-24T13:37:12;13.80;;;9.93;;
1382;SDS011;685;47.196;11.880;2023-01-24T13:39:42;11.23;;;10.10;;
1382;SDS011;685;47.196;11.880;2023-01-24T13:42:18;10.83;;;9.70;;
1382;SDS011;685;47.196;11.880;2023-01-24T13:44:47;12.47;;;10.43;;
1382;SDS011;685;47.196;11.880;2023-01-24T13:47:24;14.40;;;11.57;;
1382;SDS011;685;47.196;11.880;2023-01-24T13:52:39;38.83;;;23.70;;
1382;SDS011;685;47.196;11.880;2023-01-24T13:58:26;17.40;;;11.70;;
1382;SDS011;685;47.196;11.880;2023-01-24T14:00:55;19.20;;;10.87;;
1382;SDS011;685;47.196;11.880;2023-01-24T14:03:26;15.87;;;12.30;;
1382;SDS011;685;47.196;11.880;2023-01-24T14:06:03;14.17;;;11.97;;
1382;SDS011;685;47.196;11.880;2023-01-24T14:08:40;22.17;;;15.83;;
1382;SDS011;685;47.196;11.880;2023-01-24T14:11:15;19.00;;;13.07;;
1382;SDS011;685;47.196;11.880;2023-01-24T14:13:53;12.73;;;9.20;;
1382;SDS011;685;47.196;11.880;2023-01-24T14:19:32;14.63;;;10.70;;
1382;SDS011;685;47.196;11.880;2023-01-24T14:22:03;14.27;;;10.60;;
1382;SDS011;685;47.196;11.880;2023-01-24T14:24:47;11.93;;;8.97;;
1382;SDS011;685;47.196;11.880;2023-01-24T14:27:19;12.40;;;10.00;;
1382;SDS011;685;47.196;11.880;2023-01-24T14:29:50;14.37;;;9.20;;
1382;SDS011;685;47.196;11.880;2023-01-24T14:32:23;15.57;;;9.40;;
1382;SDS011;685;47.196;11.880;2023-01-24T14:34:56;14.33;;;10.27;;
1382;SDS011;685;47.196;11.880;2023-01-24T14:37:29;17.77;;;10.90;;
1382;SDS011;685;47.196;11.880;2023-01-24T14:40:08;13.93;;;10.03;;
1382;SDS011;685;47.196;11.880;2023-01-24T14:42:36;11.80;;;8.80;;
1382;SDS011;685;47.196;11.880;2023-01-24T14:45:04;12.13;;;10.70;;
1382;SDS011;685;47.196;11.880;2023-01-24T14:47:39;14.63;;;10.50;;
1382;SDS011;685;47.196;11.880;2023-01-24T14:50:18;15.63;;;12.30;;
1382;SDS011;685;47.196;11.880;2023-01-24T14:52:48;10.80;;;9.47;;
1382;SDS011;685;47.196;11.880;2023-01-24T14:55:32;13.87;;;11.10;;
1382;SDS011;685;47.196;11.880;2023-01-24T14:58:13;17.93;;;11.67;;
1382;SDS011;685;47.196;11.880;2023-01-24T15:00:42;14.80;;;10.20;;
1382;SDS011;685;47.196;11.880;2023-01-24T15:03:13;15.33;;;10.00;;
1382;SDS011;685;47.196;11.880;2023-01-24T15:05:50;12.10;;;9.77;;
1382;SDS011;685;47.196;11.880;2023-01-24T15:08:18;13.60;;;9.80;;
1382;SDS011;685;47.196;11.880;2023-01-24T15:10:51;12.53;;;9.83;;
1382;SDS011;685;47.196;11.880;2023-01-24T15:13:27;12.57;;;8.60;;
1382;SDS011;685;47.196;11.880;2023-01-24T15:15:56;15.17;;;9.40;;
1382;SDS011;685;47.196;11.880;2023-01-24T15:18:26;17.53;;;10.30;;
1382;SDS011;685;47.196;11.880;2023-01-24T15:21:03;17.10;;;11.40;;
1382;SDS011;685;47.196;11.880;2023-01-24T15:23:31;19.20;;;11.07;;
1382;SDS011;685;47.196;11.880;2023-01-24T15:28:58;15.43;;;11.30;;
1382;SDS011;685;47.196;11.880;2023-01-24T15:32:18;13.30;;;9.83;;
1382;SDS011;685;47.196;11.880;2023-01-24T15:34:45;15.40;;;10.40;;
1382;SDS011;685;47.196;11.880;2023-01-24T15:37:14;19.47;;;11.03;;